sensor_id;sensor_type;location;lat;lon;timestamp;temperature;humidity
75782;DHT22;64400;44.762;37.698;2023-04-24T00:01:42;10.66;87.03
75782;DHT22;64400;44.762;37.698;2023-04-24T00:04:23;10.64;86.83
75782;DHT22;64400;44.762;37.698;2023-04-24T00:07:07;10.62;86.70
75782;DHT22;64400;44.762;37.698;2023-04-24T00:09:49;10.56;86.18
75782;DHT22;64400;44.762;37.698;2023-04-24T00:12:31;10.52;86.99
75782;DHT22;64400;44.762;37.698;2023-04-24T00:15:13;10.44;86.96
75782;DHT22;64400;44.762;37.698;2023-04-24T00:18:02;10.40;87.54
75782;DHT22;64400;44.762;37.698;2023-04-24T00:20:44;10.37;86.88
75782;DHT22;64400;44.762;37.698;2023-04-24T00:23:26;10.38;86.74
75782;DHT22;64400;44.762;37.698;2023-04-24T00:26:08;10.34;86.39
75782;DHT22;64400;44.762;37.698;2023-04-24T00:28:50;10.26;86.66
75782;DHT22;64400;44.762;37.698;2023-04-24T00:31:32;10.22;86.72
75782;DHT22;64400;44.762;37.698;2023-04-24T00:34:23;10.23;86.58
75782;DHT22;64400;44.762;37.698;2023-04-24T00:37:12;10.22;86.71
75782;DHT22;64400;44.762;37.698;2023-04-24T00:39:45;10.21;86.86
75782;DHT22;64400;44.762;37.698;2023-04-24T00:42:16;10.28;85.69
75782;DHT22;64400;44.762;37.698;2023-04-24T00:45:05;10.34;85.70
75782;DHT22;64400;44.762;37.698;2023-04-24T00:47:38;10.41;86.36
75782;DHT22;64400;44.762;37.698;2023-04-24T00:50:28;10.43;86.66
75782;DHT22;64400;44.762;37.698;2023-04-24T00:53:00;10.36;87.38
75782;DHT22;64400;44.762;37.698;2023-04-24T00:55:50;10.35;86.74
75782;DHT22;64400;44.762;37.698;2023-04-24T00:58:39;10.42;86.33
75782;DHT22;64400;44.762;37.698;2023-04-24T01:01:30;10.49;86.66
75782;DHT22;64400;44.762;37.698;2023-04-24T01:04:20;10.45;86.67
75782;DHT22;64400;44.762;37.698;2023-04-24T01:07:09;10.42;86.45
75782;DHT22;64400;44.762;37.698;2023-04-24T01:10:01;10.55;84.64
75782;DHT22;64400;44.762;37.698;2023-04-24T01:12:52;10.62;84.87
75782;DHT22;64400;44.762;37.698;2023-04-24T01:15:22;10.62;85.80
75782;DHT22;64400;44.762;37.698;2023-04-24T01:17:51;10.56;86.39
75782;DHT22;64400;44.762;37.698;2023-04-24T01:20:42;10.51;85.63
75782;DHT22;64400;44.762;37.698;2023-04-24T01:23:32;10.62;85.00
75782;DHT22;64400;44.762;37.698;2023-04-24T01:26:06;10.58;86.12
75782;DHT22;64400;44.762;37.698;2023-04-24T01:28:36;10.52;86.46
75782;DHT22;64400;44.762;37.698;2023-04-24T01:31:26;10.54;86.93
75782;DHT22;64400;44.762;37.698;2023-04-24T01:34:07;10.51;86.96
75782;DHT22;64400;44.762;37.698;2023-04-24T01:36:49;10.59;84.82
75782;DHT22;64400;44.762;37.698;2023-04-24T01:39:31;10.57;86.36
75782;DHT22;64400;44.762;37.698;2023-04-24T01:42:14;10.55;87.11
75782;DHT22;64400;44.762;37.698;2023-04-24T01:45:04;10.50;86.87
75782;DHT22;64400;44.762;37.698;2023-04-24T01:47:54;10.46;87.16
75782;DHT22;64400;44.762;37.698;2023-04-24T01:50:56;10.43;87.34
75782;DHT22;64400;44.762;37.698;2023-04-24T01:53:38;10.42;87.34
75782;DHT22;64400;44.762;37.698;2023-04-24T01:56:20;10.42;87.71
75782;DHT22;64400;44.762;37.698;2023-04-24T01:59:03;10.50;87.19
75782;DHT22;64400;44.762;37.698;2023-04-24T02:01:45;10.54;87.03
75782;DHT22;64400;44.762;37.698;2023-04-24T02:04:27;10.57;87.43
75782;DHT22;64400;44.762;37.698;2023-04-24T02:07:08;10.60;87.67
75782;DHT22;64400;44.762;37.698;2023-04-24T02:09:51;10.62;87.28
75782;DHT22;64400;44.762;37.698;2023-04-24T02:12:21;10.63;87.90
75782;DHT22;64400;44.762;37.698;2023-04-24T02:15:10;10.65;88.03
75782;DHT22;64400;44.762;37.698;2023-04-24T02:17:56;10.70;87.69
75782;DHT22;64400;44.762;37.698;2023-04-24T02:20:45;10.65;88.31
75782;DHT22;64400;44.762;37.698;2023-04-24T02:23:33;10.75;87.66
75782;DHT22;64400;44.762;37.698;2023-04-24T02:26:15;10.87;87.88
75782;DHT22;64400;44.762;37.698;2023-04-24T02:28:57;10.84;87.67
75782;DHT22;64400;44.762;37.698;2023-04-24T02:31:44;10.80;88.62
75782;DHT22;64400;44.762;37.698;2023-04-24T02:34:26;10.80;88.96
75782;DHT22;64400;44.762;37.698;2023-04-24T02:37:07;10.77;89.54
75782;DHT22;64400;44.762;37.698;2023-04-24T02:39:49;10.87;89.12
75782;DHT22;64400;44.762;37.698;2023-04-24T02:42:21;11.18;88.41
75782;DHT22;64400;44.762;37.698;2023-04-24T02:45:10;11.26;88.33
75782;DHT22;64400;44.762;37.698;2023-04-24T02:47:58;11.44;87.39
75782;DHT22;64400;44.762;37.698;2023-04-24T02:50:38;11.36;87.70
75782;DHT22;64400;44.762;37.698;2023-04-24T02:53:27;11.34;88.28
75782;DHT22;64400;44.762;37.698;2023-04-24T02:56:02;11.34;88.28
75782;DHT22;64400;44.762;37.698;2023-04-24T02:58:30;11.37;88.15
75782;DHT22;64400;44.762;37.698;2023-04-24T03:00:59;11.39;88.04
75782;DHT22;64400;44.762;37.698;2023-04-24T03:03:32;11.41;88.24
75782;DHT22;64400;44.762;37.698;2023-04-24T03:06:20;11.45;87.99
75782;DHT22;64400;44.762;37.698;2023-04-24T03:08:51;11.42;88.30
75782;DHT22;64400;44.762;37.698;2023-04-24T03:11:40;11.45;88.29
75782;DHT22;64400;44.762;37.698;2023-04-24T03:14:29;11.48;88.53
75782;DHT22;64400;44.762;37.698;2023-04-24T03:17:00;11.47;88.68
75782;DHT22;64400;44.762;37.698;2023-04-24T03:19:49;11.44;88.41
75782;DHT22;64400;44.762;37.698;2023-04-24T03:22:31;11.46;89.09
75782;DHT22;64400;44.762;37.698;2023-04-24T03:25:13;11.51;88.86
75782;DHT22;64400;44.762;37.698;2023-04-24T03:27:55;11.53;88.87
75782;DHT22;64400;44.762;37.698;2023-04-24T03:30:43;11.59;88.87
75782;DHT22;64400;44.762;37.698;2023-04-24T03:33:29;11.60;88.27
75782;DHT22;64400;44.762;37.698;2023-04-24T03:36:10;11.66;88.69
75782;DHT22;64400;44.762;37.698;2023-04-24T03:38:59;11.69;88.43
75782;DHT22;64400;44.762;37.698;2023-04-24T03:41:47;11.76;88.61
75782;DHT22;64400;44.762;37.698;2023-04-24T03:44:40;11.82;88.22
75782;DHT22;64400;44.762;37.698;2023-04-24T03:47:33;11.88;88.09
75782;DHT22;64400;44.762;37.698;2023-04-24T03:50:05;11.99;87.83
75782;DHT22;64400;44.762;37.698;2023-04-24T03:52:54;12.13;87.80
75782;DHT22;64400;44.762;37.698;2023-04-24T03:55:35;12.30;87.04
75782;DHT22;64400;44.762;37.698;2023-04-24T03:58:25;12.38;86.54
75782;DHT22;64400;44.762;37.698;2023-04-24T04:01:13;12.33;86.36
75782;DHT22;64400;44.762;37.698;2023-04-24T04:04:01;12.35;86.29
75782;DHT22;64400;44.762;37.698;2023-04-24T04:06:44;12.43;86.53
75782;DHT22;64400;44.762;37.698;2023-04-24T04:09:28;12.44;85.91
75782;DHT22;64400;44.762;37.698;2023-04-24T04:12:10;12.44;86.37
75782;DHT22;64400;44.762;37.698;2023-04-24T04:14:52;12.46;86.29
75782;DHT22;64400;44.762;37.698;2023-04-24T04:17:52;12.51;85.96
75782;DHT22;64400;44.762;37.698;2023-04-24T04:20:41;12.53;86.09
75782;DHT22;64400;44.762;37.698;2023-04-24T04:23:29;12.62;85.97
75782;DHT22;64400;44.762;37.698;2023-04-24T04:26:27;12.61;85.72
75782;DHT22;64400;44.762;37.698;2023-04-24T04:29:02;12.62;85.81
75782;DHT22;64400;44.762;37.698;2023-04-24T04:31:52;12.64;85.47
75782;DHT22;64400;44.762;37.698;2023-04-24T04:34:40;12.70;85.98
75782;DHT22;64400;44.762;37.698;2023-04-24T04:37:25;12.67;85.83
75782;DHT22;64400;44.762;37.698;2023-04-24T04:40:34;12.73;85.67
75782;DHT22;64400;44.762;37.698;2023-04-24T04:43:18;12.79;85.59
75782;DHT22;64400;44.762;37.698;2023-04-24T04:46:00;12.88;85.84
75782;DHT22;64400;44.762;37.698;2023-04-24T04:49:01;12.91;85.15
75782;DHT22;64400;44.762;37.698;2023-04-24T04:51:43;12.92;85.27
75782;DHT22;64400;44.762;37.698;2023-04-24T04:54:26;13.00;85.02
75782;DHT22;64400;44.762;37.698;2023-04-24T04:57:08;13.03;84.62
75782;DHT22;64400;44.762;37.698;2023-04-24T04:59:58;13.05;84.89
75782;DHT22;64400;44.762;37.698;2023-04-24T05:02:40;13.05;84.88
75782;DHT22;64400;44.762;37.698;2023-04-24T05:05:29;13.04;84.87
75782;DHT22;64400;44.762;37.698;2023-04-24T05:08:18;13.00;85.26
75782;DHT22;64400;44.762;37.698;2023-04-24T05:10:51;13.06;85.16
75782;DHT22;64400;44.762;37.698;2023-04-24T05:13:41;13.05;84.75
75782;DHT22;64400;44.762;37.698;2023-04-24T05:16:16;13.03;84.59
75782;DHT22;64400;44.762;37.698;2023-04-24T05:18:58;13.00;86.77
75782;DHT22;64400;44.762;37.698;2023-04-24T05:21:41;13.10;85.15
75782;DHT22;64400;44.762;37.698;2023-04-24T05:24:09;13.05;85.31
75782;DHT22;64400;44.762;37.698;2023-04-24T05:27:17;13.10;86.12
75782;DHT22;64400;44.762;37.698;2023-04-24T05:29:52;13.11;85.23
75782;DHT22;64400;44.762;37.698;2023-04-24T05:32:41;13.06;85.90
75782;DHT22;64400;44.762;37.698;2023-04-24T05:35:10;13.01;85.61
75782;DHT22;64400;44.762;37.698;2023-04-24T05:42:53;13.15;85.07
75782;DHT22;64400;44.762;37.698;2023-04-24T05:45:42;13.26;84.28
75782;DHT22;64400;44.762;37.698;2023-04-24T05:48:12;13.31;84.03
75782;DHT22;64400;44.762;37.698;2023-04-24T05:50:42;13.40;84.96
75782;DHT22;64400;44.762;37.698;2023-04-24T05:53:15;13.41;84.09
75782;DHT22;64400;44.762;37.698;2023-04-24T05:55:46;13.39;84.23
75782;DHT22;64400;44.762;37.698;2023-04-24T05:58:36;13.43;84.97
75782;DHT22;64400;44.762;37.698;2023-04-24T06:01:07;13.46;84.16
75782;DHT22;64400;44.762;37.698;2023-04-24T06:04:05;13.55;83.71
75782;DHT22;64400;44.762;37.698;2023-04-24T06:06:54;13.62;82.71
75782;DHT22;64400;44.762;37.698;2023-04-24T06:09:45;13.54;84.35
75782;DHT22;64400;44.762;37.698;2023-04-24T06:12:40;13.60;84.66
75782;DHT22;64400;44.762;37.698;2023-04-24T06:15:16;13.56;83.23
75782;DHT22;64400;44.762;37.698;2023-04-24T06:18:11;13.65;83.75
75782;DHT22;64400;44.762;37.698;2023-04-24T06:20:42;13.82;83.26
75782;DHT22;64400;44.762;37.698;2023-04-24T06:23:30;13.60;83.49
75782;DHT22;64400;44.762;37.698;2023-04-24T06:26:06;13.59;84.10
75782;DHT22;64400;44.762;37.698;2023-04-24T06:28:55;13.65;83.10
75782;DHT22;64400;44.762;37.698;2023-04-24T06:31:45;13.67;84.98
75782;DHT22;64400;44.762;37.698;2023-04-24T06:34:15;13.69;85.67
75782;DHT22;64400;44.762;37.698;2023-04-24T06:37:04;13.60;85.30
75782;DHT22;64400;44.762;37.698;2023-04-24T06:39:45;13.37;84.64
75782;DHT22;64400;44.762;37.698;2023-04-24T06:42:31;13.33;87.97
75782;DHT22;64400;44.762;37.698;2023-04-24T06:45:13;13.33;87.73
75782;DHT22;64400;44.762;37.698;2023-04-24T06:47:54;13.44;86.18
75782;DHT22;64400;44.762;37.698;2023-04-24T06:50:37;13.50;86.81
75782;DHT22;64400;44.762;37.698;2023-04-24T06:53:19;13.55;86.25
75782;DHT22;64400;44.762;37.698;2023-04-24T06:55:49;13.50;87.42
75782;DHT22;64400;44.762;37.698;2023-04-24T06:58:37;13.47;85.84
75782;DHT22;64400;44.762;37.698;2023-04-24T07:01:26;13.61;90.24
75782;DHT22;64400;44.762;37.698;2023-04-24T07:04:13;13.67;87.31
75782;DHT22;64400;44.762;37.698;2023-04-24T07:06:47;13.62;87.03
75782;DHT22;64400;44.762;37.698;2023-04-24T07:09:22;13.70;89.50
75782;DHT22;64400;44.762;37.698;2023-04-24T07:12:14;13.70;87.42
75782;DHT22;64400;44.762;37.698;2023-04-24T07:14:43;13.70;91.03
75782;DHT22;64400;44.762;37.698;2023-04-24T07:17:25;13.74;91.24
75782;DHT22;64400;44.762;37.698;2023-04-24T07:19:54;13.73;92.36
75782;DHT22;64400;44.762;37.698;2023-04-24T07:22:23;13.84;93.24
75782;DHT22;64400;44.762;37.698;2023-04-24T07:25:12;14.01;92.63
75782;DHT22;64400;44.762;37.698;2023-04-24T07:28:01;14.21;92.69
75782;DHT22;64400;44.762;37.698;2023-04-24T07:30:33;14.33;91.98
75782;DHT22;64400;44.762;37.698;2023-04-24T07:33:08;14.40;91.55
75782;DHT22;64400;44.762;37.698;2023-04-24T07:35:38;14.45;90.95
75782;DHT22;64400;44.762;37.698;2023-04-24T07:38:10;14.55;91.00
75782;DHT22;64400;44.762;37.698;2023-04-24T07:40:59;14.70;90.52
75782;DHT22;64400;44.762;37.698;2023-04-24T07:43:41;14.82;89.21
75782;DHT22;64400;44.762;37.698;2023-04-24T07:46:23;14.82;88.23
75782;DHT22;64400;44.762;37.698;2023-04-24T07:49:05;14.82;88.93
75782;DHT22;64400;44.762;37.698;2023-04-24T07:51:49;14.83;88.10
75782;DHT22;64400;44.762;37.698;2023-04-24T07:54:31;14.83;88.15
75782;DHT22;64400;44.762;37.698;2023-04-24T07:57:13;14.80;87.83
75782;DHT22;64400;44.762;37.698;2023-04-24T07:59:55;14.69;87.70
75782;DHT22;64400;44.762;37.698;2023-04-24T08:02:23;14.69;88.19
75782;DHT22;64400;44.762;37.698;2023-04-24T08:05:14;14.69;88.51
75782;DHT22;64400;44.762;37.698;2023-04-24T08:07:45;14.74;88.26
75782;DHT22;64400;44.762;37.698;2023-04-24T08:10:37;14.84;89.34
75782;DHT22;64400;44.762;37.698;2023-04-24T08:13:25;14.86;87.83
75782;DHT22;64400;44.762;37.698;2023-04-24T08:15:55;14.81;88.65
75782;DHT22;64400;44.762;37.698;2023-04-24T08:18:35;14.83;87.62
75782;DHT22;64400;44.762;37.698;2023-04-24T08:21:04;14.84;85.30
75782;DHT22;64400;44.762;37.698;2023-04-24T08:23:53;14.77;84.31
75782;DHT22;64400;44.762;37.698;2023-04-24T08:26:35;14.58;87.29
75782;DHT22;64400;44.762;37.698;2023-04-24T08:29:17;14.25;89.16
75782;DHT22;64400;44.762;37.698;2023-04-24T08:31:59;13.96;89.59
75782;DHT22;64400;44.762;37.698;2023-04-24T08:34:41;13.81;89.69
75782;DHT22;64400;44.762;37.698;2023-04-24T08:37:23;13.90;90.64
75782;DHT22;64400;44.762;37.698;2023-04-24T08:40:15;13.96;88.84
75782;DHT22;64400;44.762;37.698;2023-04-24T08:42:59;13.98;88.95
75782;DHT22;64400;44.762;37.698;2023-04-24T08:45:41;14.07;89.05
75782;DHT22;64400;44.762;37.698;2023-04-24T08:48:23;13.98;87.47
75782;DHT22;64400;44.762;37.698;2023-04-24T08:50:59;13.90;88.85
75782;DHT22;64400;44.762;37.698;2023-04-24T08:53:48;14.09;89.73
75782;DHT22;64400;44.762;37.698;2023-04-24T08:56:23;14.22;90.35
75782;DHT22;64400;44.762;37.698;2023-04-24T08:58:53;14.27;90.38
75782;DHT22;64400;44.762;37.698;2023-04-24T09:01:29;14.33;88.83
75782;DHT22;64400;44.762;37.698;2023-04-24T09:04:14;14.40;89.13
75782;DHT22;64400;44.762;37.698;2023-04-24T09:06:58;14.40;88.99
75782;DHT22;64400;44.762;37.698;2023-04-24T09:09:30;14.38;88.97
75782;DHT22;64400;44.762;37.698;2023-04-24T09:12:14;14.42;88.32
75782;DHT22;64400;44.762;37.698;2023-04-24T09:15:03;14.32;88.63
75782;DHT22;64400;44.762;37.698;2023-04-24T09:17:53;14.14;87.86
75782;DHT22;64400;44.762;37.698;2023-04-24T09:20:19;14.23;89.25
75782;DHT22;64400;44.762;37.698;2023-04-24T09:23:01;14.27;88.44
75782;DHT22;64400;44.762;37.698;2023-04-24T09:25:43;14.18;89.87
75782;DHT22;64400;44.762;37.698;2023-04-24T09:28:39;14.13;90.77
75782;DHT22;64400;44.762;37.698;2023-04-24T09:31:21;14.09;91.85
75782;DHT22;64400;44.762;37.698;2023-04-24T09:34:04;13.96;92.85
75782;DHT22;64400;44.762;37.698;2023-04-24T09:36:50;13.90;92.85
75782;DHT22;64400;44.762;37.698;2023-04-24T09:39:39;13.82;94.34
75782;DHT22;64400;44.762;37.698;2023-04-24T09:42:29;13.68;91.89
75782;DHT22;64400;44.762;37.698;2023-04-24T09:44:58;13.61;93.25
75782;DHT22;64400;44.762;37.698;2023-04-24T09:47:52;13.37;93.30
75782;DHT22;64400;44.762;37.698;2023-04-24T09:50:46;13.39;95.26
75782;DHT22;64400;44.762;37.698;2023-04-24T09:53:35;13.43;97.50
75782;DHT22;64400;44.762;37.698;2023-04-24T09:56:25;13.35;97.27
75782;DHT22;64400;44.762;37.698;2023-04-24T09:59:07;13.32;97.69
75782;DHT22;64400;44.762;37.698;2023-04-24T10:01:49;13.34;97.13
75782;DHT22;64400;44.762;37.698;2023-04-24T10:04:32;13.32;98.85
75782;DHT22;64400;44.762;37.698;2023-04-24T10:07:21;13.31;97.90
75782;DHT22;64400;44.762;37.698;2023-04-24T10:10:03;13.38;98.77
75782;DHT22;64400;44.762;37.698;2023-04-24T10:12:34;13.44;98.48
75782;DHT22;64400;44.762;37.698;2023-04-24T10:15:06;13.47;97.36
75782;DHT22;64400;44.762;37.698;2023-04-24T10:17:36;13.61;97.05
75782;DHT22;64400;44.762;37.698;2023-04-24T10:20:06;13.74;97.25
75782;DHT22;64400;44.762;37.698;2023-04-24T10:22:57;13.83;96.91
75782;DHT22;64400;44.762;37.698;2023-04-24T10:25:33;13.81;95.87
75782;DHT22;64400;44.762;37.698;2023-04-24T10:28:05;13.90;95.95
75782;DHT22;64400;44.762;37.698;2023-04-24T10:30:54;13.90;98.63
75782;DHT22;64400;44.762;37.698;2023-04-24T10:33:23;14.04;97.83
75782;DHT22;64400;44.762;37.698;2023-04-24T10:36:13;13.99;96.13
75782;DHT22;64400;44.762;37.698;2023-04-24T10:38:43;13.96;96.58
75782;DHT22;64400;44.762;37.698;2023-04-24T10:41:18;14.07;96.33
75782;DHT22;64400;44.762;37.698;2023-04-24T10:44:15;14.24;95.35
75782;DHT22;64400;44.762;37.698;2023-04-24T10:47:04;14.34;95.00
75782;DHT22;64400;44.762;37.698;2023-04-24T10:49:45;14.40;95.52
75782;DHT22;64400;44.762;37.698;2023-04-24T10:52:44;14.45;94.75
75782;DHT22;64400;44.762;37.698;2023-04-24T10:55:48;14.52;94.11
75782;DHT22;64400;44.762;37.698;2023-04-24T11:01:26;14.63;93.63
75782;DHT22;64400;44.762;37.698;2023-04-24T11:04:29;14.65;93.13
75782;DHT22;64400;44.762;37.698;2023-04-24T11:07:20;14.65;91.85
75782;DHT22;64400;44.762;37.698;2023-04-24T11:10:02;14.55;92.69
75782;DHT22;64400;44.762;37.698;2023-04-24T11:12:45;14.40;91.08
75782;DHT22;64400;44.762;37.698;2023-04-24T11:15:34;14.43;92.05
75782;DHT22;64400;44.762;37.698;2023-04-24T11:18:15;14.50;93.40
75782;DHT22;64400;44.762;37.698;2023-04-24T11:20:59;14.49;94.32
75782;DHT22;64400;44.762;37.698;2023-04-24T11:23:48;14.30;93.98
75782;DHT22;64400;44.762;37.698;2023-04-24T11:26:29;14.34;95.69
75782;DHT22;64400;44.762;37.698;2023-04-24T11:29:14;14.26;95.02
75782;DHT22;64400;44.762;37.698;2023-04-24T11:31:56;14.21;95.47
75782;DHT22;64400;44.762;37.698;2023-04-24T11:34:46;14.18;95.32
75782;DHT22;64400;44.762;37.698;2023-04-24T11:37:39;14.04;95.88
75782;DHT22;64400;44.762;37.698;2023-04-24T11:40:10;14.00;95.36
75782;DHT22;64400;44.762;37.698;2023-04-24T11:42:44;13.90;94.83
75782;DHT22;64400;44.762;37.698;2023-04-24T11:45:32;14.03;95.51
75782;DHT22;64400;44.762;37.698;2023-04-24T11:48:11;14.20;96.00
75782;DHT22;64400;44.762;37.698;2023-04-24T11:50:46;14.08;93.57
75782;DHT22;64400;44.762;37.698;2023-04-24T11:53:36;14.06;93.92
75782;DHT22;64400;44.762;37.698;2023-04-24T11:56:06;14.17;95.67
75782;DHT22;64400;44.762;37.698;2023-04-24T11:58:56;14.39;96.30
75782;DHT22;64400;44.762;37.698;2023-04-24T12:01:24;14.57;94.42
75782;DHT22;64400;44.762;37.698;2023-04-24T12:03:59;14.70;94.91
75782;DHT22;64400;44.762;37.698;2023-04-24T12:06:28;14.78;95.22
75782;DHT22;64400;44.762;37.698;2023-04-24T12:08:58;14.74;93.37
75782;DHT22;64400;44.762;37.698;2023-04-24T12:11:55;14.65;93.70
75782;DHT22;64400;44.762;37.698;2023-04-24T12:14:24;14.44;94.15
75782;DHT22;64400;44.762;37.698;2023-04-24T12:16:52;14.32;94.72
75782;DHT22;64400;44.762;37.698;2023-04-24T12:19:47;14.53;96.73
75782;DHT22;64400;44.762;37.698;2023-04-24T12:23:08;14.66;94.27
75782;DHT22;64400;44.762;37.698;2023-04-24T12:25:51;14.51;91.58
75782;DHT22;64400;44.762;37.698;2023-04-24T12:28:20;14.52;93.77
75782;DHT22;64400;44.762;37.698;2023-04-24T12:30:51;14.62;94.44
75782;DHT22;64400;44.762;37.698;2023-04-24T12:33:40;14.50;92.05
75782;DHT22;64400;44.762;37.698;2023-04-24T12:36:10;14.51;93.48
75782;DHT22;64400;44.762;37.698;2023-04-24T12:38:43;14.44;92.80
75782;DHT22;64400;44.762;37.698;2023-04-24T12:41:14;14.45;94.59
75782;DHT22;64400;44.762;37.698;2023-04-24T12:44:03;14.54;94.33
75782;DHT22;64400;44.762;37.698;2023-04-24T12:46:33;14.59;93.43
75782;DHT22;64400;44.762;37.698;2023-04-24T12:49:21;14.65;94.01
75782;DHT22;64400;44.762;37.698;2023-04-24T12:51:52;14.71;94.27
75782;DHT22;64400;44.762;37.698;2023-04-24T12:54:38;14.73;93.69
75782;DHT22;64400;44.762;37.698;2023-04-24T12:57:08;14.77;93.77
75782;DHT22;64400;44.762;37.698;2023-04-24T12:59:58;14.60;91.02
75782;DHT22;64400;44.762;37.698;2023-04-24T13:02:47;14.35;92.05
75782;DHT22;64400;44.762;37.698;2023-04-24T13:05:35;14.36;93.51
75782;DHT22;64400;44.762;37.698;2023-04-24T13:08:03;14.35;91.59
75782;DHT22;64400;44.762;37.698;2023-04-24T13:10:34;14.43;93.45
75782;DHT22;64400;44.762;37.698;2023-04-24T13:13:23;14.44;92.18
75782;DHT22;64400;44.762;37.698;2023-04-24T13:15:56;14.29;90.98
75782;DHT22;64400;44.762;37.698;2023-04-24T13:18:25;14.13;93.99
75782;DHT22;64400;44.762;37.698;2023-04-24T13:21:13;14.01;95.93
75782;DHT22;64400;44.762;37.698;2023-04-24T13:23:44;13.92;97.30
75782;DHT22;64400;44.762;37.698;2023-04-24T13:26:23;13.94;98.23
75782;DHT22;64400;44.762;37.698;2023-04-24T13:29:12;13.93;98.90
75782;DHT22;64400;44.762;37.698;2023-04-24T13:31:54;13.95;98.18
75782;DHT22;64400;44.762;37.698;2023-04-24T13:34:43;13.92;96.76
75782;DHT22;64400;44.762;37.698;2023-04-24T13:37:27;13.96;97.05
75782;DHT22;64400;44.762;37.698;2023-04-24T13:40:15;13.94;95.97
75782;DHT22;64400;44.762;37.698;2023-04-24T13:42:45;14.04;96.19
75782;DHT22;64400;44.762;37.698;2023-04-24T13:45:22;14.03;93.86
75782;DHT22;64400;44.762;37.698;2023-04-24T13:47:52;14.01;94.68
75782;DHT22;64400;44.762;37.698;2023-04-24T13:50:42;13.99;95.25
75782;DHT22;64400;44.762;37.698;2023-04-24T13:53:16;14.04;95.84
75782;DHT22;64400;44.762;37.698;2023-04-24T13:56:05;14.01;94.10
75782;DHT22;64400;44.762;37.698;2023-04-24T13:58:54;14.06;93.98
75782;DHT22;64400;44.762;37.698;2023-04-24T14:01:23;14.13;94.09
75782;DHT22;64400;44.762;37.698;2023-04-24T14:04:15;14.19;95.06
75782;DHT22;64400;44.762;37.698;2023-04-24T14:07:04;14.24;94.99
75782;DHT22;64400;44.762;37.698;2023-04-24T14:09:35;14.24;93.59
75782;DHT22;64400;44.762;37.698;2023-04-24T14:12:23;14.35;93.71
75782;DHT22;64400;44.762;37.698;2023-04-24T14:14:57;14.38;95.09
75782;DHT22;64400;44.762;37.698;2023-04-24T14:17:31;14.41;94.92
75782;DHT22;64400;44.762;37.698;2023-04-24T14:20:01;14.37;92.98
75782;DHT22;64400;44.762;37.698;2023-04-24T14:22:50;14.30;92.61
75782;DHT22;64400;44.762;37.698;2023-04-24T14:25:39;14.22;94.51
75782;DHT22;64400;44.762;37.698;2023-04-24T14:28:28;14.03;95.67
75782;DHT22;64400;44.762;37.698;2023-04-24T14:31:19;13.93;97.61
75782;DHT22;64400;44.762;37.698;2023-04-24T14:33:49;13.91;98.60
75782;DHT22;64400;44.762;37.698;2023-04-24T14:36:38;13.71;98.87
75782;DHT22;64400;44.762;37.698;2023-04-24T14:39:07;13.50;99.85
75782;DHT22;64400;44.762;37.698;2023-04-24T14:41:37;13.21;98.03
75782;DHT22;64400;44.762;37.698;2023-04-24T14:44:07;13.07;99.04
75782;DHT22;64400;44.762;37.698;2023-04-24T14:46:35;12.95;99.40
75782;DHT22;64400;44.762;37.698;2023-04-24T14:49:23;12.84;100.09
75782;DHT22;64400;44.762;37.698;2023-04-24T14:52:12;12.79;100.01
75782;DHT22;64400;44.762;37.698;2023-04-24T14:55:01;12.82;100.18
75782;DHT22;64400;44.762;37.698;2023-04-24T14:57:52;12.69;100.95
75782;DHT22;64400;44.762;37.698;2023-04-24T15:00:26;12.73;101.25
75782;DHT22;64400;44.762;37.698;2023-04-24T15:03:15;12.67;100.66
75782;DHT22;64400;44.762;37.698;2023-04-24T15:06:04;12.63;100.81
75782;DHT22;64400;44.762;37.698;2023-04-24T15:08:53;12.61;100.99
75782;DHT22;64400;44.762;37.698;2023-04-24T15:11:23;12.48;101.14
75782;DHT22;64400;44.762;37.698;2023-04-24T15:14:11;12.50;101.64
75782;DHT22;64400;44.762;37.698;2023-04-24T15:16:53;12.52;101.80
75782;DHT22;64400;44.762;37.698;2023-04-24T15:19:35;12.46;101.70
75782;DHT22;64400;44.762;37.698;2023-04-24T15:22:16;12.41;101.25
75782;DHT22;64400;44.762;37.698;2023-04-24T15:24:58;12.34;102.06
75782;DHT22;64400;44.762;37.698;2023-04-24T15:27:47;12.40;102.57
75782;DHT22;64400;44.762;37.698;2023-04-24T15:30:36;12.35;101.97
75782;DHT22;64400;44.762;37.698;2023-04-24T15:33:05;12.31;102.08
75782;DHT22;64400;44.762;37.698;2023-04-24T15:35:54;12.30;102.50
75782;DHT22;64400;44.762;37.698;2023-04-24T15:38:36;12.33;101.65
75782;DHT22;64400;44.762;37.698;2023-04-24T15:41:06;12.40;102.14
75782;DHT22;64400;44.762;37.698;2023-04-24T15:43:55;12.43;101.76
75782;DHT22;64400;44.762;37.698;2023-04-24T15:46:44;12.45;101.54
75782;DHT22;64400;44.762;37.698;2023-04-24T15:49:32;12.50;101.26
75782;DHT22;64400;44.762;37.698;2023-04-24T15:52:21;12.48;102.15
75782;DHT22;64400;44.762;37.698;2023-04-24T15:55:10;12.48;101.42
75782;DHT22;64400;44.762;37.698;2023-04-24T15:57:42;12.50;101.17
75782;DHT22;64400;44.762;37.698;2023-04-24T16:00:13;12.52;100.91
75782;DHT22;64400;44.762;37.698;2023-04-24T16:02:42;12.47;102.05
75782;DHT22;64400;44.762;37.698;2023-04-24T16:05:20;12.44;101.82
75782;DHT22;64400;44.762;37.698;2023-04-24T16:08:11;12.43;102.34
75782;DHT22;64400;44.762;37.698;2023-04-24T16:10:48;12.35;102.35
75782;DHT22;64400;44.762;37.698;2023-04-24T16:13:37;12.25;102.45
75782;DHT22;64400;44.762;37.698;2023-04-24T16:16:26;12.21;102.41
75782;DHT22;64400;44.762;37.698;2023-04-24T16:18:57;12.17;102.33
75782;DHT22;64400;44.762;37.698;2023-04-24T16:21:37;12.11;102.45
75782;DHT22;64400;44.762;37.698;2023-04-24T16:24:26;12.08;102.60
75782;DHT22;64400;44.762;37.698;2023-04-24T16:27:08;12.07;102.61
75782;DHT22;64400;44.762;37.698;2023-04-24T16:29:50;12.08;102.08
75782;DHT22;64400;44.762;37.698;2023-04-24T16:32:33;12.02;102.24
75782;DHT22;64400;44.762;37.698;2023-04-24T16:35:15;12.07;102.35
75782;DHT22;64400;44.762;37.698;2023-04-24T16:37:57;12.15;102.01
75782;DHT22;64400;44.762;37.698;2023-04-24T16:40:39;12.18;102.44
75782;DHT22;64400;44.762;37.698;2023-04-24T16:43:14;12.13;101.80
75782;DHT22;64400;44.762;37.698;2023-04-24T16:45:43;12.11;102.27
75782;DHT22;64400;44.762;37.698;2023-04-24T16:48:26;12.01;102.50
75782;DHT22;64400;44.762;37.698;2023-04-24T16:51:15;11.90;103.08
75782;DHT22;64400;44.762;37.698;2023-04-24T16:53:48;11.86;102.98
75782;DHT22;64400;44.762;37.698;2023-04-24T16:56:24;11.92;102.53